createdAt,value
2018-12-31T00:01:30.162Z,1.43
2018-12-31T00:03:59.202Z,1.50
2018-12-31T00:06:28.194Z,1.63
2018-12-31T00:08:57.174Z,1.30
2018-12-31T00:11:26.239Z,1.50
2018-12-31T00:13:55.210Z,1.23
2018-12-31T00:16:24.316Z,0.90
2018-12-31T00:18:53.370Z,1.73
2018-12-31T00:21:22.434Z,1.60
2018-12-31T00:23:51.964Z,1.50
2018-12-31T00:26:20.962Z,1.30
2018-12-31T00:28:50.006Z,1.90
2018-12-31T00:31:19.135Z,1.63
2018-12-31T00:33:48.187Z,1.77
2018-12-31T00:36:17.227Z,1.67
2018-12-31T00:38:46.295Z,1.53
2018-12-31T00:41:15.379Z,1.17
2018-12-31T00:43:44.831Z,1.33
2018-12-31T00:46:14.502Z,1.47
2018-12-31T00:48:43.510Z,1.40
2018-12-31T00:51:12.563Z,1.00
2018-12-31T00:53:41.695Z,2.00
2018-12-31T00:56:10.772Z,1.13
2018-12-31T00:58:39.822Z,1.30
2018-12-31T01:01:08.918Z,1.37
2018-12-31T01:03:37.963Z,1.50
2018-12-31T01:06:07.009Z,1.20
2018-12-31T01:08:36.046Z,1.30
2018-12-31T01:11:05.222Z,1.33
2018-12-31T01:13:34.204Z,1.60
2018-12-31T01:16:03.274Z,1.57
2018-12-31T01:18:32.232Z,1.10
2018-12-31T01:21:01.206Z,1.53
2018-12-31T01:23:30.628Z,1.33
2018-12-31T01:25:59.719Z,1.00
2018-12-31T01:28:28.766Z,1.23
2018-12-31T01:30:58.183Z,1.40
2018-12-31T01:33:27.222Z,1.20
2018-12-31T01:35:56.218Z,1.07
2018-12-31T01:38:25.294Z,1.20
2018-12-31T01:40:54.331Z,1.20
2018-12-31T01:43:23.522Z,1.10
2018-12-31T01:45:53.499Z,1.00
2018-12-31T01:48:22.548Z,1.20
2018-12-31T01:50:51.518Z,0.80
2018-12-31T01:53:20.511Z,1.30
2018-12-31T01:55:50.780Z,1.33
2018-12-31T01:58:19.801Z,1.00
2018-12-31T02:00:48.870Z,1.00
2018-12-31T02:03:18.059Z,1.03
2018-12-31T02:05:47.108Z,1.10
2018-12-31T02:08:16.378Z,0.90
2018-12-31T02:10:45.350Z,1.03
2018-12-31T02:13:14.401Z,1.20
2018-12-31T02:15:44.443Z,1.20
2018-12-31T02:18:13.489Z,1.10
2018-12-31T02:20:42.536Z,1.20
2018-12-31T02:23:11.537Z,0.80
2018-12-31T02:25:40.532Z,1.00
2018-12-31T02:28:09.626Z,0.97
2018-12-31T02:30:38.949Z,0.90
2018-12-31T02:33:08.094Z,1.10
2018-12-31T02:35:37.076Z,1.00
2018-12-31T02:38:06.831Z,1.17
2018-12-31T02:40:35.795Z,0.70
2018-12-31T02:43:04.850Z,1.30
2018-12-31T02:45:34.225Z,1.00
2018-12-31T02:48:04.042Z,1.07
2018-12-31T02:50:33.023Z,0.97
2018-12-31T02:53:02.426Z,0.70
2018-12-31T02:55:31.391Z,0.70
2018-12-31T02:58:00.449Z,0.90
2018-12-31T03:00:29.706Z,0.83
2018-12-31T03:02:58.770Z,1.10
2018-12-31T03:05:27.898Z,1.40
2018-12-31T03:07:57.606Z,0.87
2018-12-31T03:10:26.573Z,1.10
2018-12-31T03:12:55.618Z,1.10
2018-12-31T03:15:24.722Z,0.70
2018-12-31T03:17:53.699Z,1.00
2018-12-31T03:20:22.727Z,1.10
2018-12-31T03:22:52.295Z,0.83
2018-12-31T03:25:21.502Z,0.80
2018-12-31T03:27:50.614Z,0.93
2018-12-31T03:30:20.182Z,1.00
2018-12-31T03:32:49.456Z,1.00
2018-12-31T03:35:18.503Z,0.87
2018-12-31T03:37:47.771Z,1.20
2018-12-31T03:40:16.851Z,0.50
2018-12-31T03:42:45.959Z,0.80
2018-12-31T03:45:15.121Z,0.87
2018-12-31T03:47:44.707Z,0.73
2018-12-31T03:50:13.659Z,0.80
2018-12-31T03:52:43.155Z,0.80
2018-12-31T03:55:12.211Z,0.83
2018-12-31T03:57:41.192Z,0.77
2018-12-31T04:00:10.279Z,0.77
2018-12-31T04:02:39.393Z,0.70
2018-12-31T04:05:08.474Z,0.90
2018-12-31T04:07:37.713Z,0.73
2018-12-31T04:10:06.798Z,0.80
2018-12-31T04:12:35.853Z,1.00
2018-12-31T04:15:05.102Z,0.80
2018-12-31T04:17:34.079Z,1.03
2018-12-31T04:20:03.126Z,0.73
2018-12-31T04:22:32.205Z,0.90
2018-12-31T04:25:01.183Z,0.70
2018-12-31T04:27:30.158Z,1.00
2018-12-31T04:29:59.366Z,0.80
2018-12-31T04:32:28.335Z,1.13
2018-12-31T04:34:57.385Z,0.70
2018-12-31T04:37:26.640Z,0.90
2018-12-31T04:39:55.605Z,1.00
2018-12-31T04:42:24.579Z,0.63
2018-12-31T04:44:53.645Z,0.73
2018-12-31T04:47:23.015Z,0.90
2018-12-31T04:49:52.460Z,0.60
2018-12-31T04:52:21.834Z,0.70
2018-12-31T04:54:50.895Z,0.93
2018-12-31T04:57:19.955Z,0.90
2018-12-31T04:59:49.010Z,0.77
2018-12-31T05:02:17.977Z,1.00
2018-12-31T05:04:47.031Z,0.87
2018-12-31T05:07:16.266Z,1.03
2018-12-31T05:09:45.310Z,1.07
2018-12-31T05:12:14.287Z,0.90
2018-12-31T05:14:43.390Z,0.80
2018-12-31T05:17:12.438Z,0.80
2018-12-31T05:19:41.406Z,0.90
2018-12-31T05:22:10.477Z,0.73
2018-12-31T05:24:39.434Z,0.70
2018-12-31T05:27:08.583Z,0.83
2018-12-31T05:29:38.285Z,0.80
2018-12-31T05:32:07.257Z,1.00
2018-12-31T05:34:36.297Z,1.33
2018-12-31T05:37:05.377Z,0.80
2018-12-31T05:39:34.349Z,0.60
2018-12-31T05:42:03.315Z,0.73
2018-12-31T05:44:32.807Z,0.70
2018-12-31T05:47:01.975Z,0.80
2018-12-31T05:49:31.341Z,0.87
2018-12-31T05:52:00.594Z,0.90
2018-12-31T05:54:29.570Z,0.73
2018-12-31T05:56:58.545Z,0.80
2018-12-31T05:59:27.969Z,1.20
2018-12-31T06:01:57.023Z,1.00
2018-12-31T06:04:25.982Z,0.70
2018-12-31T06:06:55.272Z,0.60
2018-12-31T06:11:49.340Z,1.00
2018-12-31T06:14:18.390Z,0.70
2018-12-31T06:16:47.439Z,0.80
2018-12-31T06:19:16.517Z,0.90
2018-12-31T06:21:45.559Z,0.73
2018-12-31T06:24:14.603Z,0.83
2018-12-31T06:26:43.871Z,1.00
2018-12-31T06:29:12.914Z,1.00
2018-12-31T06:31:41.902Z,0.83
2018-12-31T06:34:11.119Z,1.00
2018-12-31T06:36:40.085Z,0.93
2018-12-31T06:39:09.541Z,0.83
2018-12-31T06:41:38.874Z,1.00
2018-12-31T06:44:07.838Z,0.80
2018-12-31T06:46:36.889Z,0.50
2018-12-31T06:49:06.126Z,0.70
2018-12-31T06:51:35.174Z,0.90
2018-12-31T06:54:04.137Z,0.80
2018-12-31T06:56:33.477Z,0.80
2018-12-31T06:59:02.450Z,1.00
2018-12-31T07:01:31.561Z,1.00
2018-12-31T07:04:01.283Z,0.70
2018-12-31T07:06:30.258Z,0.80
2018-12-31T07:08:59.438Z,0.70
2018-12-31T07:11:28.759Z,0.87
2018-12-31T07:13:58.077Z,1.03
2018-12-31T07:16:27.115Z,0.70
2018-12-31T07:18:56.654Z,1.13
2018-12-31T07:21:25.630Z,0.83
2018-12-31T07:23:54.601Z,1.00
2018-12-31T07:26:23.942Z,0.90
2018-12-31T07:31:33.346Z,0.93
2018-12-31T07:34:02.386Z,0.97
2018-12-31T07:36:31.431Z,0.83
2018-12-31T07:39:00.499Z,1.40
2018-12-31T07:41:29.566Z,1.20
2018-12-31T07:43:58.597Z,0.80
2018-12-31T07:46:27.859Z,0.77
2018-12-31T07:48:56.913Z,1.10
2018-12-31T07:51:25.962Z,0.90
2018-12-31T07:53:55.291Z,1.00
2018-12-31T07:56:24.451Z,0.73
2018-12-31T07:58:53.499Z,1.03
2018-12-31T08:01:22.824Z,1.07
2018-12-31T08:03:51.871Z,1.00
2018-12-31T08:06:20.835Z,1.00
2018-12-31T08:08:50.109Z,1.13
2018-12-31T08:11:19.162Z,1.10
2018-12-31T08:13:48.222Z,1.20
2018-12-31T08:16:17.701Z,0.97
2018-12-31T08:18:46.739Z,0.90
2018-12-31T08:21:15.707Z,0.97
2018-12-31T08:23:45.101Z,1.00
2018-12-31T08:26:14.183Z,0.90
2018-12-31T08:28:43.222Z,1.10
2018-12-31T08:31:31.968Z,1.07
2018-12-31T08:34:01.560Z,0.97
2018-12-31T08:36:30.527Z,0.90
2018-12-31T08:38:59.766Z,0.87
2018-12-31T08:41:28.814Z,1.03
2018-12-31T08:43:58.828Z,1.10
2018-12-31T08:46:28.494Z,0.90
2018-12-31T08:48:57.679Z,0.97
2018-12-31T08:51:26.722Z,1.10
2018-12-31T08:53:55.930Z,1.30
2018-12-31T08:56:24.971Z,1.00
2018-12-31T08:58:54.020Z,1.23
2018-12-31T09:01:23.791Z,1.00
2018-12-31T09:03:52.842Z,1.13
2018-12-31T09:06:21.890Z,1.30
2018-12-31T09:08:51.167Z,1.20
2018-12-31T09:11:20.278Z,1.10
2018-12-31T09:13:49.328Z,1.20
2018-12-31T09:16:18.714Z,1.20
2018-12-31T09:18:47.786Z,1.03
2018-12-31T09:21:16.874Z,1.10
2018-12-31T09:23:46.497Z,1.30
2018-12-31T09:26:15.463Z,1.30
2018-12-31T09:28:44.429Z,1.33
2018-12-31T09:31:13.849Z,1.00
2018-12-31T09:33:43.075Z,0.97
2018-12-31T09:36:12.581Z,1.00
2018-12-31T09:38:42.862Z,1.50
2018-12-31T09:41:12.014Z,0.83
2018-12-31T09:43:40.999Z,0.90
2018-12-31T09:46:10.601Z,1.40
2018-12-31T09:48:39.657Z,1.23
2018-12-31T09:51:08.790Z,1.47
2018-12-31T09:53:38.300Z,1.70
2018-12-31T09:56:11.501Z,2.20
2018-12-31T09:58:40.586Z,2.43
2018-12-31T10:01:10.079Z,2.33
2018-12-31T10:03:39.046Z,2.10
2018-12-31T10:06:07.945Z,1.83
2018-12-31T10:08:36.931Z,1.80
2018-12-31T10:11:05.826Z,1.67
2018-12-31T10:13:34.802Z,1.90
2018-12-31T10:16:03.879Z,1.67
2018-12-31T10:18:32.883Z,2.03
2018-12-31T10:21:03.325Z,1.77
2018-12-31T10:23:32.547Z,1.73
2018-12-31T10:26:01.579Z,1.40
2018-12-31T10:28:30.632Z,1.23
2018-12-31T10:31:00.071Z,1.17
2018-12-31T10:33:29.326Z,1.43
2018-12-31T10:35:58.748Z,1.80
2018-12-31T10:38:27.824Z,1.57
2018-12-31T10:40:56.890Z,1.50
2018-12-31T10:43:25.870Z,1.60
2018-12-31T10:45:55.118Z,1.80
2018-12-31T10:48:24.178Z,1.73
2018-12-31T10:50:53.226Z,1.57
2018-12-31T10:53:22.445Z,1.30
2018-12-31T10:55:51.535Z,1.50
2018-12-31T10:58:20.576Z,1.40
2018-12-31T11:00:49.662Z,1.50
2018-12-31T11:03:18.630Z,1.60
2018-12-31T11:05:47.686Z,1.63
2018-12-31T11:08:16.972Z,1.40
2018-12-31T11:10:46.014Z,1.53
2018-12-31T11:13:15.063Z,1.33
2018-12-31T11:15:44.558Z,1.50
2018-12-31T11:18:13.595Z,1.87
2018-12-31T11:20:42.722Z,1.40
2018-12-31T11:23:11.866Z,1.37
2018-12-31T11:25:40.839Z,1.97
2018-12-31T11:28:09.879Z,1.83
2018-12-31T11:30:39.553Z,1.20
2018-12-31T11:33:09.178Z,1.30
2018-12-31T11:35:38.305Z,1.57
2018-12-31T11:38:07.379Z,1.27
2018-12-31T11:40:36.546Z,2.30
2018-12-31T11:43:05.621Z,2.30
2018-12-31T11:45:35.022Z,1.83
2018-12-31T11:48:04.069Z,2.30
2018-12-31T11:50:33.134Z,1.73
2018-12-31T11:53:02.610Z,1.87
2018-12-31T11:55:31.671Z,2.17
2018-12-31T11:58:00.718Z,1.70
2018-12-31T12:00:29.804Z,2.20
2018-12-31T12:02:58.836Z,1.63
2018-12-31T12:05:27.885Z,1.60
2018-12-31T12:07:57.279Z,1.83
2018-12-31T12:10:26.344Z,1.70
2018-12-31T12:12:55.383Z,1.70
2018-12-31T12:15:24.469Z,1.90
2018-12-31T12:17:53.446Z,2.10
2018-12-31T12:20:22.425Z,1.87
2018-12-31T12:22:51.422Z,2.10
2018-12-31T12:25:20.475Z,1.83
2018-12-31T12:27:49.434Z,1.90
2018-12-31T12:30:18.456Z,2.23
2018-12-31T12:32:47.422Z,1.80
2018-12-31T12:35:16.605Z,1.80
2018-12-31T12:37:48.640Z,1.70
2018-12-31T12:40:17.526Z,1.80
2018-12-31T12:42:46.647Z,1.73
2018-12-31T12:45:16.154Z,1.80
2018-12-31T12:47:45.215Z,1.60
2018-12-31T12:50:14.319Z,1.73
2018-12-31T12:52:44.054Z,1.77
2018-12-31T12:55:13.595Z,1.70
2018-12-31T12:57:42.634Z,1.87
2018-12-31T13:00:11.685Z,1.80
2018-12-31T13:02:40.810Z,1.77
2018-12-31T13:05:09.941Z,1.83
2018-12-31T13:07:39.638Z,1.90
2018-12-31T13:10:08.721Z,2.00
2018-12-31T13:12:37.765Z,1.60
2018-12-31T13:15:06.838Z,1.90
2018-12-31T13:17:35.932Z,2.07
2018-12-31T13:20:05.174Z,1.47
2018-12-31T13:22:34.561Z,2.20
2018-12-31T13:25:03.663Z,2.10
2018-12-31T13:27:32.649Z,1.87
2018-12-31T13:30:02.111Z,2.03
2018-12-31T13:32:31.173Z,2.00
2018-12-31T13:35:00.703Z,1.77
2018-12-31T13:37:30.097Z,1.67
2018-12-31T13:39:59.135Z,2.00
2018-12-31T13:42:28.160Z,1.63
2018-12-31T13:44:57.795Z,2.00
2018-12-31T13:47:26.761Z,1.90
2018-12-31T13:49:55.729Z,2.17
2018-12-31T13:52:25.086Z,1.70
2018-12-31T13:54:54.146Z,1.40
2018-12-31T13:57:23.262Z,1.90
2018-12-31T13:59:53.046Z,1.77
2018-12-31T14:02:22.020Z,1.63
2018-12-31T14:04:51.054Z,1.60
2018-12-31T14:07:20.878Z,1.50
2018-12-31T14:09:49.935Z,1.83
2018-12-31T14:12:18.911Z,1.90
2018-12-31T14:14:47.959Z,1.83
2018-12-31T14:17:16.935Z,1.50
2018-12-31T14:19:46.353Z,1.40
2018-12-31T14:22:15.365Z,1.90
2018-12-31T14:24:44.427Z,1.90
2018-12-31T14:27:13.468Z,1.77
2018-12-31T14:29:42.834Z,1.80
2018-12-31T14:32:12.381Z,1.70
2018-12-31T14:34:41.447Z,1.50
2018-12-31T14:37:11.128Z,1.70
2018-12-31T14:39:40.902Z,1.73
2018-12-31T14:42:10.026Z,2.00
2018-12-31T14:44:39.954Z,1.43
2018-12-31T14:47:09.281Z,1.77
2018-12-31T14:49:38.241Z,1.80
2018-12-31T14:52:07.550Z,1.60
2018-12-31T14:54:36.605Z,1.90
2018-12-31T14:57:06.170Z,1.80
2018-12-31T14:59:35.858Z,1.53
2018-12-31T15:02:04.911Z,2.00
2018-12-31T15:04:34.023Z,1.53
2018-12-31T15:07:03.449Z,1.80
2018-12-31T15:09:32.428Z,1.90
2018-12-31T15:12:01.471Z,1.90
2018-12-31T15:14:30.531Z,2.00
2018-12-31T15:16:59.594Z,1.63
2018-12-31T15:19:28.638Z,1.80
2018-12-31T15:21:58.526Z,1.73
2018-12-31T15:24:27.570Z,2.10
2018-12-31T15:26:56.611Z,1.70
2018-12-31T15:29:26.531Z,1.60
2018-12-31T15:31:55.515Z,1.83
2018-12-31T15:34:24.491Z,1.60
2018-12-31T15:36:53.642Z,1.57
2018-12-31T15:39:23.205Z,1.80
2018-12-31T15:41:52.274Z,2.00
2018-12-31T15:44:22.019Z,1.70
2018-12-31T15:46:51.078Z,1.60
2018-12-31T15:49:20.291Z,1.70
2018-12-31T15:51:49.926Z,2.13
2018-12-31T15:54:18.983Z,1.93
2018-12-31T15:56:48.101Z,1.60
2018-12-31T15:59:17.340Z,1.90
2018-12-31T16:01:46.307Z,1.87
2018-12-31T16:04:15.341Z,1.90
2018-12-31T16:06:44.721Z,1.70
2018-12-31T16:09:13.761Z,2.30
2018-12-31T16:11:42.808Z,2.60
2018-12-31T16:14:11.887Z,2.47
2018-12-31T16:16:40.930Z,2.43
2018-12-31T16:19:10.002Z,2.90
2018-12-31T16:21:39.349Z,2.23
2018-12-31T16:24:08.406Z,2.80
2018-12-31T16:26:37.380Z,2.93
2018-12-31T16:29:07.262Z,2.73
2018-12-31T16:31:36.302Z,2.40
2018-12-31T16:34:05.411Z,3.03
2018-12-31T16:36:34.421Z,3.37
2018-12-31T16:39:04.094Z,2.63
2018-12-31T16:41:33.454Z,2.77
2018-12-31T16:44:02.790Z,3.00
2018-12-31T16:46:31.932Z,2.83
2018-12-31T16:49:01.110Z,3.00
2018-12-31T16:51:30.238Z,3.97
2018-12-31T16:54:00.089Z,3.50
2018-12-31T16:56:29.205Z,3.77
2018-12-31T16:58:58.556Z,3.93
2018-12-31T17:01:27.601Z,4.17
2018-12-31T17:03:56.659Z,4.30
2018-12-31T17:06:26.123Z,5.30
2018-12-31T17:08:55.171Z,5.40
2018-12-31T17:11:24.203Z,5.70
2018-12-31T17:13:53.296Z,6.20
2018-12-31T17:16:22.335Z,5.50
2018-12-31T17:18:51.394Z,6.43
2018-12-31T17:21:20.586Z,6.20
2018-12-31T17:23:49.549Z,6.30
2018-12-31T17:26:18.594Z,6.43
2018-12-31T17:28:48.283Z,6.20
2018-12-31T17:31:17.337Z,6.30
2018-12-31T17:33:46.483Z,6.97
2018-12-31T17:36:15.674Z,7.07
2018-12-31T17:38:45.055Z,6.60
2018-12-31T17:41:14.907Z,6.83
2018-12-31T17:43:44.410Z,6.70
2018-12-31T17:46:13.379Z,6.77
2018-12-31T17:48:42.463Z,7.37
2018-12-31T17:51:12.078Z,6.30
2018-12-31T17:53:41.126Z,6.33
2018-12-31T17:56:10.102Z,6.67
2018-12-31T17:58:39.472Z,6.40
2018-12-31T18:01:08.589Z,6.20
2018-12-31T18:03:37.635Z,6.23
2018-12-31T18:06:07.034Z,6.47
2018-12-31T18:08:36.011Z,6.43
2018-12-31T18:11:05.065Z,6.77
2018-12-31T18:13:36.459Z,6.67
2018-12-31T18:16:05.661Z,6.17
2018-12-31T18:18:34.706Z,7.43
2018-12-31T18:21:03.720Z,6.93
2018-12-31T18:23:32.760Z,7.67
2018-12-31T18:26:01.882Z,6.57
2018-12-31T18:28:30.957Z,7.27
2018-12-31T18:31:00.002Z,6.90
2018-12-31T18:33:28.966Z,7.47
2018-12-31T18:35:58.546Z,7.33
2018-12-31T18:38:27.941Z,8.33
2018-12-31T18:40:57.223Z,7.70
2018-12-31T18:43:26.774Z,7.80
2018-12-31T18:45:55.807Z,7.07
2018-12-31T18:48:25.034Z,8.10
2018-12-31T18:50:54.348Z,7.83
2018-12-31T18:53:23.858Z,8.07
2018-12-31T18:55:52.918Z,8.50
2018-12-31T18:58:22.234Z,7.77
2018-12-31T19:00:51.206Z,7.97
2018-12-31T19:03:20.252Z,8.03
2018-12-31T19:05:49.797Z,8.00
2018-12-31T19:08:18.837Z,8.53
2018-12-31T19:10:47.891Z,8.47
2018-12-31T19:13:17.686Z,7.60
2018-12-31T19:15:46.654Z,7.47
2018-12-31T19:18:15.694Z,8.37
2018-12-31T19:20:44.830Z,7.97
2018-12-31T19:23:14.010Z,7.80
2018-12-31T19:25:42.915Z,8.07
2018-12-31T19:28:12.083Z,7.50
2018-12-31T19:30:41.689Z,8.13
2018-12-31T19:33:10.670Z,7.57
2018-12-31T19:35:39.890Z,8.03
2018-12-31T19:38:09.038Z,7.70
2018-12-31T19:40:38.381Z,7.77
2018-12-31T19:43:07.966Z,7.33
2018-12-31T19:45:36.941Z,7.67
2018-12-31T19:48:05.982Z,7.70
2018-12-31T19:50:35.378Z,7.97
2018-12-31T19:53:04.434Z,7.57
2018-12-31T19:55:33.979Z,7.60
2018-12-31T19:58:02.996Z,7.37
2018-12-31T20:00:32.047Z,7.67
2018-12-31T20:03:01.166Z,8.20
2018-12-31T20:05:30.497Z,7.63
2018-12-31T20:08:00.120Z,7.20
2018-12-31T20:10:29.238Z,7.80
2018-12-31T20:12:58.339Z,7.27
2018-12-31T20:15:27.297Z,7.50
2018-12-31T20:17:56.361Z,7.87
2018-12-31T20:20:25.938Z,7.33
2018-12-31T20:22:54.986Z,6.57
2018-12-31T20:25:24.103Z,6.83
2018-12-31T20:27:53.404Z,6.60
2018-12-31T20:30:22.522Z,7.20
2018-12-31T20:32:51.596Z,6.97
2018-12-31T20:35:20.945Z,6.50
2018-12-31T20:37:49.996Z,7.10
2018-12-31T20:40:19.305Z,6.67
2018-12-31T20:42:49.435Z,6.43
2018-12-31T20:45:18.415Z,6.97
2018-12-31T20:47:48.167Z,10.73
2018-12-31T20:50:17.546Z,10.60
2018-12-31T20:52:46.882Z,10.30
2018-12-31T20:55:15.844Z,9.77
2018-12-31T20:57:45.226Z,10.13
2018-12-31T21:00:14.291Z,10.53
2018-12-31T21:02:43.354Z,10.37
2018-12-31T21:05:13.130Z,12.57
2018-12-31T21:07:42.223Z,14.33
2018-12-31T21:10:11.860Z,12.30
2018-12-31T21:12:41.062Z,11.63
2018-12-31T21:15:10.214Z,12.47
2018-12-31T21:17:39.202Z,11.93
2018-12-31T21:20:08.830Z,11.90
2018-12-31T21:22:37.890Z,12.10
2018-12-31T21:25:06.880Z,12.60
2018-12-31T21:27:36.756Z,12.07
2018-12-31T21:30:08.442Z,12.93
2018-12-31T21:32:37.514Z,12.83
2018-12-31T21:35:07.515Z,15.53
2018-12-31T21:37:36.638Z,14.27
2018-12-31T21:40:07.825Z,14.93
2018-12-31T21:42:37.633Z,14.80
2018-12-31T21:45:06.605Z,15.50
2018-12-31T21:47:35.591Z,14.67
2018-12-31T21:50:04.962Z,14.03
2018-12-31T21:52:34.006Z,13.93
2018-12-31T21:55:03.074Z,15.10
2018-12-31T21:57:32.166Z,14.23
2018-12-31T22:00:01.213Z,13.67
2018-12-31T22:02:30.262Z,14.90
2018-12-31T22:04:59.687Z,14.23
2018-12-31T22:07:28.738Z,14.57
2018-12-31T22:09:57.804Z,14.60
2018-12-31T22:12:26.891Z,14.63
2018-12-31T22:14:56.033Z,15.00
2018-12-31T22:17:25.550Z,15.47
2018-12-31T22:19:54.598Z,14.23
2018-12-31T22:22:23.641Z,15.73
2018-12-31T22:24:52.703Z,15.43
2018-12-31T22:27:22.359Z,15.40
2018-12-31T22:29:52.015Z,15.03
2018-12-31T22:32:21.026Z,14.43
2018-12-31T22:34:50.260Z,14.40
2018-12-31T22:37:19.316Z,13.60
2018-12-31T22:39:48.778Z,13.87
2018-12-31T22:42:19.681Z,13.90
2018-12-31T22:44:48.675Z,15.00
2018-12-31T22:47:17.721Z,13.23
2018-12-31T22:49:46.975Z,13.50
2018-12-31T22:52:16.030Z,14.50
2018-12-31T22:54:45.554Z,13.37
2018-12-31T22:57:14.865Z,13.80
2018-12-31T22:59:43.849Z,13.00
2018-12-31T23:02:12.972Z,13.90
2018-12-31T23:04:42.457Z,13.40
2018-12-31T23:07:12.160Z,14.00
2018-12-31T23:09:41.632Z,14.07
2018-12-31T23:12:11.618Z,14.97
2018-12-31T23:14:40.663Z,17.43
2018-12-31T23:17:12.438Z,17.13
2018-12-31T23:19:42.162Z,18.70
2018-12-31T23:22:11.202Z,23.60
2018-12-31T23:24:40.249Z,27.20
2018-12-31T23:27:10.405Z,30.23
2018-12-31T23:29:39.478Z,30.73
2018-12-31T23:32:08.546Z,34.87
2018-12-31T23:34:37.851Z,33.83
2018-12-31T23:37:06.814Z,33.53
2018-12-31T23:39:35.892Z,32.03
2018-12-31T23:42:05.405Z,33.57
2018-12-31T23:44:34.898Z,35.77
2018-12-31T23:47:03.958Z,38.53
2018-12-31T23:49:33.322Z,39.97
2018-12-31T23:52:02.376Z,43.33
2018-12-31T23:54:31.402Z,43.60
2018-12-31T23:57:00.714Z,42.53
2018-12-31T23:59:29.696Z,41.83
